sensor_id;sensor_type;location;lat;lon;timestamp;P1;durP1;ratioP1;P2;durP2;ratioP2
25905;SDS011;13713;52.552;13.204;2023-05-10T00:01:07;22.45;;;16.00;;
25905;SDS011;13713;52.552;13.204;2023-05-10T00:03:33;21.90;;;15.00;;
25905;SDS011;13713;52.552;13.204;2023-05-10T00:05:58;20.88;;;15.40;;
25905;SDS011;13713;52.552;13.204;2023-05-10T00:08:24;22.23;;;15.23;;
25905;SDS011;13713;52.552;13.204;2023-05-10T00:10:50;24.02;;;16.70;;
25905;SDS011;13713;52.552;13.204;2023-05-10T00:13:15;18.92;;;14.82;;
25905;SDS011;13713;52.552;13.204;2023-05-10T00:15:41;21.58;;;16.20;;
25905;SDS011;13713;52.552;13.204;2023-05-10T00:18:07;23.75;;;16.48;;
25905;SDS011;13713;52.552;13.204;2023-05-10T00:20:33;25.95;;;16.25;;
25905;SDS011;13713;52.552;13.204;2023-05-10T00:22:58;22.92;;;15.00;;
25905;SDS011;13713;52.552;13.204;2023-05-10T00:25:24;21.80;;;15.38;;
25905;SDS011;13713;52.552;13.204;2023-05-10T00:27:50;19.85;;;15.38;;
25905;SDS011;13713;52.552;13.204;2023-05-10T00:30:15;22.60;;;16.65;;
25905;SDS011;13713;52.552;13.204;2023-05-10T00:32:41;21.42;;;15.88;;
25905;SDS011;13713;52.552;13.204;2023-05-10T00:35:08;21.65;;;16.02;;
25905;SDS011;13713;52.552;13.204;2023-05-10T00:37:34;21.42;;;15.38;;
25905;SDS011;13713;52.552;13.204;2023-05-10T00:40:00;18.60;;;14.68;;
25905;SDS011;13713;52.552;13.204;2023-05-10T00:42:26;22.52;;;16.30;;
25905;SDS011;13713;52.552;13.204;2023-05-10T00:44:53;23.35;;;16.33;;
25905;SDS011;13713;52.552;13.204;2023-05-10T00:47:19;20.50;;;15.40;;
25905;SDS011;13713;52.552;13.204;2023-05-10T00:49:44;21.92;;;16.40;;
25905;SDS011;13713;52.552;13.204;2023-05-10T00:52:11;24.13;;;16.13;;
25905;SDS011;13713;52.552;13.204;2023-05-10T00:54:36;20.25;;;15.27;;
25905;SDS011;13713;52.552;13.204;2023-05-10T00:57:02;20.50;;;15.85;;
25905;SDS011;13713;52.552;13.204;2023-05-10T00:59:28;20.27;;;16.00;;
25905;SDS011;13713;52.552;13.204;2023-05-10T01:01:55;20.50;;;15.93;;
25905;SDS011;13713;52.552;13.204;2023-05-10T01:04:21;19.10;;;15.30;;
25905;SDS011;13713;52.552;13.204;2023-05-10T01:06:50;22.33;;;17.20;;
25905;SDS011;13713;52.552;13.204;2023-05-10T01:09:17;21.35;;;15.32;;
25905;SDS011;13713;52.552;13.204;2023-05-10T01:11:44;20.23;;;15.45;;
25905;SDS011;13713;52.552;13.204;2023-05-10T01:14:10;21.75;;;15.75;;
25905;SDS011;13713;52.552;13.204;2023-05-10T01:16:37;19.90;;;15.90;;
25905;SDS011;13713;52.552;13.204;2023-05-10T01:19:25;21.45;;;15.85;;
25905;SDS011;13713;52.552;13.204;2023-05-10T01:24:44;20.63;;;15.90;;
25905;SDS011;13713;52.552;13.204;2023-05-10T01:27:37;21.13;;;16.08;;
25905;SDS011;13713;52.552;13.204;2023-05-10T01:30:15;19.70;;;16.20;;
25905;SDS011;13713;52.552;13.204;2023-05-10T01:32:56;19.70;;;15.50;;
25905;SDS011;13713;52.552;13.204;2023-05-10T01:38:22;21.60;;;15.82;;
25905;SDS011;13713;52.552;13.204;2023-05-10T01:41:04;22.10;;;16.03;;
25905;SDS011;13713;52.552;13.204;2023-05-10T01:43:33;21.33;;;16.55;;
25905;SDS011;13713;52.552;13.204;2023-05-10T01:46:24;19.95;;;16.17;;
25905;SDS011;13713;52.552;13.204;2023-05-10T01:48:57;21.10;;;15.60;;
25905;SDS011;13713;52.552;13.204;2023-05-10T01:51:26;20.42;;;15.80;;
25905;SDS011;13713;52.552;13.204;2023-05-10T01:54:00;21.88;;;16.00;;
25905;SDS011;13713;52.552;13.204;2023-05-10T01:56:28;21.13;;;16.40;;
25905;SDS011;13713;52.552;13.204;2023-05-10T01:58:57;24.27;;;17.05;;
25905;SDS011;13713;52.552;13.204;2023-05-10T02:01:25;21.17;;;16.05;;
25905;SDS011;13713;52.552;13.204;2023-05-10T02:03:52;21.55;;;16.30;;
25905;SDS011;13713;52.552;13.204;2023-05-10T02:06:20;20.10;;;15.10;;
25905;SDS011;13713;52.552;13.204;2023-05-10T02:08:47;21.25;;;15.95;;
25905;SDS011;13713;52.552;13.204;2023-05-10T02:11:15;20.98;;;16.42;;
25905;SDS011;13713;52.552;13.204;2023-05-10T02:13:44;20.75;;;15.95;;
25905;SDS011;13713;52.552;13.204;2023-05-10T02:16:12;21.05;;;16.50;;
25905;SDS011;13713;52.552;13.204;2023-05-10T02:18:39;18.95;;;14.80;;
25905;SDS011;13713;52.552;13.204;2023-05-10T02:21:06;21.83;;;16.27;;
25905;SDS011;13713;52.552;13.204;2023-05-10T02:23:33;19.90;;;15.48;;
25905;SDS011;13713;52.552;13.204;2023-05-10T02:26:01;20.73;;;16.38;;
25905;SDS011;13713;52.552;13.204;2023-05-10T02:28:28;21.15;;;16.35;;
25905;SDS011;13713;52.552;13.204;2023-05-10T02:30:55;21.23;;;17.00;;
25905;SDS011;13713;52.552;13.204;2023-05-10T02:33:21;21.33;;;16.48;;
25905;SDS011;13713;52.552;13.204;2023-05-10T02:35:48;20.42;;;16.55;;
25905;SDS011;13713;52.552;13.204;2023-05-10T02:38:16;22.42;;;16.95;;
25905;SDS011;13713;52.552;13.204;2023-05-10T02:40:45;22.52;;;15.63;;
25905;SDS011;13713;52.552;13.204;2023-05-10T02:43:12;21.77;;;16.27;;
25905;SDS011;13713;52.552;13.204;2023-05-10T02:45:40;22.98;;;17.35;;
25905;SDS011;13713;52.552;13.204;2023-05-10T02:48:08;19.55;;;16.10;;
25905;SDS011;13713;52.552;13.204;2023-05-10T02:50:34;20.27;;;15.90;;
25905;SDS011;13713;52.552;13.204;2023-05-10T02:53:04;22.30;;;16.73;;
25905;SDS011;13713;52.552;13.204;2023-05-10T02:55:36;21.38;;;16.48;;
25905;SDS011;13713;52.552;13.204;2023-05-10T02:58:05;21.80;;;16.75;;
25905;SDS011;13713;52.552;13.204;2023-05-10T03:00:31;20.65;;;16.20;;
25905;SDS011;13713;52.552;13.204;2023-05-10T03:02:57;20.20;;;15.75;;
25905;SDS011;13713;52.552;13.204;2023-05-10T03:05:24;21.63;;;16.50;;
25905;SDS011;13713;52.552;13.204;2023-05-10T03:07:50;23.13;;;16.60;;
25905;SDS011;13713;52.552;13.204;2023-05-10T03:10:18;19.80;;;15.93;;
25905;SDS011;13713;52.552;13.204;2023-05-10T03:15:37;21.58;;;16.70;;
25905;SDS011;13713;52.552;13.204;2023-05-10T03:18:14;20.30;;;15.98;;
25905;SDS011;13713;52.552;13.204;2023-05-10T03:20:50;21.25;;;16.23;;
25905;SDS011;13713;52.552;13.204;2023-05-10T03:23:40;19.55;;;15.35;;
25905;SDS011;13713;52.552;13.204;2023-05-10T03:26:09;19.50;;;15.93;;
25905;SDS011;13713;52.552;13.204;2023-05-10T03:28:39;20.30;;;16.48;;
25905;SDS011;13713;52.552;13.204;2023-05-10T03:31:06;21.45;;;15.75;;
25905;SDS011;13713;52.552;13.204;2023-05-10T03:33:33;21.35;;;16.98;;
25905;SDS011;13713;52.552;13.204;2023-05-10T03:35:59;19.73;;;16.33;;
25905;SDS011;13713;52.552;13.204;2023-05-10T03:38:25;20.92;;;15.85;;
25905;SDS011;13713;52.552;13.204;2023-05-10T03:40:51;21.40;;;15.00;;
25905;SDS011;13713;52.552;13.204;2023-05-10T03:43:16;19.10;;;15.02;;
25905;SDS011;13713;52.552;13.204;2023-05-10T03:45:42;19.58;;;15.32;;
25905;SDS011;13713;52.552;13.204;2023-05-10T03:48:08;20.63;;;15.07;;
25905;SDS011;13713;52.552;13.204;2023-05-10T03:50:33;19.40;;;15.35;;
25905;SDS011;13713;52.552;13.204;2023-05-10T03:52:59;19.75;;;15.48;;
25905;SDS011;13713;52.552;13.204;2023-05-10T03:55:26;18.52;;;15.48;;
25905;SDS011;13713;52.552;13.204;2023-05-10T03:57:52;18.33;;;15.73;;
25905;SDS011;13713;52.552;13.204;2023-05-10T04:00:20;18.83;;;15.57;;
25905;SDS011;13713;52.552;13.204;2023-05-10T04:02:49;18.80;;;15.80;;
25905;SDS011;13713;52.552;13.204;2023-05-10T04:05:17;19.30;;;15.57;;
25905;SDS011;13713;52.552;13.204;2023-05-10T04:07:43;18.52;;;15.05;;
25905;SDS011;13713;52.552;13.204;2023-05-10T04:10:10;19.65;;;14.80;;
25905;SDS011;13713;52.552;13.204;2023-05-10T04:12:36;22.65;;;16.75;;
25905;SDS011;13713;52.552;13.204;2023-05-10T04:15:02;21.25;;;15.43;;
25905;SDS011;13713;52.552;13.204;2023-05-10T04:17:27;21.77;;;16.50;;
25905;SDS011;13713;52.552;13.204;2023-05-10T04:19:53;19.15;;;15.50;;
25905;SDS011;13713;52.552;13.204;2023-05-10T04:22:19;20.23;;;15.60;;
25905;SDS011;13713;52.552;13.204;2023-05-10T04:24:45;20.02;;;14.73;;
25905;SDS011;13713;52.552;13.204;2023-05-10T04:27:11;21.70;;;15.88;;
25905;SDS011;13713;52.552;13.204;2023-05-10T04:29:37;22.85;;;14.88;;
25905;SDS011;13713;52.552;13.204;2023-05-10T04:32:03;28.75;;;16.10;;
25905;SDS011;13713;52.552;13.204;2023-05-10T04:34:29;29.45;;;16.73;;
25905;SDS011;13713;52.552;13.204;2023-05-10T04:36:55;52.83;;;21.77;;
25905;SDS011;13713;52.552;13.204;2023-05-10T04:39:20;151.60;;;48.78;;
25905;SDS011;13713;52.552;13.204;2023-05-10T04:41:46;113.05;;;35.70;;
25905;SDS011;13713;52.552;13.204;2023-05-10T04:44:11;139.52;;;41.92;;
25905;SDS011;13713;52.552;13.204;2023-05-10T04:46:37;119.18;;;40.50;;
25905;SDS011;13713;52.552;13.204;2023-05-10T04:49:03;96.68;;;36.20;;
25905;SDS011;13713;52.552;13.204;2023-05-10T04:51:28;73.30;;;28.67;;
25905;SDS011;13713;52.552;13.204;2023-05-10T04:53:54;70.43;;;28.33;;
25905;SDS011;13713;52.552;13.204;2023-05-10T04:56:20;64.85;;;28.45;;
25905;SDS011;13713;52.552;13.204;2023-05-10T04:58:46;72.47;;;27.60;;
25905;SDS011;13713;52.552;13.204;2023-05-10T05:01:12;60.45;;;25.58;;
25905;SDS011;13713;52.552;13.204;2023-05-10T05:03:38;68.97;;;22.85;;
25905;SDS011;13713;52.552;13.204;2023-05-10T05:06:03;59.55;;;24.33;;
25905;SDS011;13713;52.552;13.204;2023-05-10T05:08:30;60.63;;;24.42;;
25905;SDS011;13713;52.552;13.204;2023-05-10T05:10:55;52.90;;;23.02;;
25905;SDS011;13713;52.552;13.204;2023-05-10T05:13:21;47.45;;;23.05;;
25905;SDS011;13713;52.552;13.204;2023-05-10T05:15:46;55.08;;;24.08;;
25905;SDS011;13713;52.552;13.204;2023-05-10T05:18:12;47.90;;;21.75;;
25905;SDS011;13713;52.552;13.204;2023-05-10T05:20:38;43.63;;;21.58;;
25905;SDS011;13713;52.552;13.204;2023-05-10T05:23:03;47.60;;;21.60;;
25905;SDS011;13713;52.552;13.204;2023-05-10T05:25:29;46.90;;;21.20;;
25905;SDS011;13713;52.552;13.204;2023-05-10T05:27:55;45.30;;;20.98;;
25905;SDS011;13713;52.552;13.204;2023-05-10T05:30:20;36.08;;;18.52;;
25905;SDS011;13713;52.552;13.204;2023-05-10T05:32:46;34.40;;;17.63;;
25905;SDS011;13713;52.552;13.204;2023-05-10T05:35:14;28.40;;;17.25;;
25905;SDS011;13713;52.552;13.204;2023-05-10T05:37:40;27.40;;;17.30;;
25905;SDS011;13713;52.552;13.204;2023-05-10T05:40:06;31.27;;;17.40;;
25905;SDS011;13713;52.552;13.204;2023-05-10T05:42:32;26.85;;;16.70;;
25905;SDS011;13713;52.552;13.204;2023-05-10T05:44:58;30.73;;;17.30;;
25905;SDS011;13713;52.552;13.204;2023-05-10T05:47:24;24.02;;;15.35;;
25905;SDS011;13713;52.552;13.204;2023-05-10T05:49:50;24.65;;;15.15;;
25905;SDS011;13713;52.552;13.204;2023-05-10T05:52:15;27.27;;;15.27;;
25905;SDS011;13713;52.552;13.204;2023-05-10T05:54:41;23.85;;;15.60;;
25905;SDS011;13713;52.552;13.204;2023-05-10T05:57:07;23.75;;;14.90;;
25905;SDS011;13713;52.552;13.204;2023-05-10T05:59:33;22.02;;;14.90;;
25905;SDS011;13713;52.552;13.204;2023-05-10T06:01:58;22.90;;;14.68;;
25905;SDS011;13713;52.552;13.204;2023-05-10T06:04:24;33.05;;;22.92;;
25905;SDS011;13713;52.552;13.204;2023-05-10T06:06:50;26.02;;;17.38;;
25905;SDS011;13713;52.552;13.204;2023-05-10T06:09:15;27.83;;;19.08;;
25905;SDS011;13713;52.552;13.204;2023-05-10T06:11:41;29.50;;;19.27;;
25905;SDS011;13713;52.552;13.204;2023-05-10T06:14:07;27.15;;;18.65;;
25905;SDS011;13713;52.552;13.204;2023-05-10T06:16:35;29.48;;;19.60;;
25905;SDS011;13713;52.552;13.204;2023-05-10T06:19:01;33.67;;;19.70;;
25905;SDS011;13713;52.552;13.204;2023-05-10T06:21:27;45.95;;;24.75;;
25905;SDS011;13713;52.552;13.204;2023-05-10T06:23:53;35.75;;;21.02;;
25905;SDS011;13713;52.552;13.204;2023-05-10T06:26:19;45.70;;;23.65;;
25905;SDS011;13713;52.552;13.204;2023-05-10T06:28:45;57.85;;;30.10;;
25905;SDS011;13713;52.552;13.204;2023-05-10T06:31:11;58.00;;;28.23;;
25905;SDS011;13713;52.552;13.204;2023-05-10T06:33:37;69.78;;;32.47;;
25905;SDS011;13713;52.552;13.204;2023-05-10T06:36:03;92.55;;;40.40;;
25905;SDS011;13713;52.552;13.204;2023-05-10T06:38:28;81.88;;;37.28;;
25905;SDS011;13713;52.552;13.204;2023-05-10T06:40:54;71.60;;;35.72;;
25905;SDS011;13713;52.552;13.204;2023-05-10T06:43:20;69.50;;;31.60;;
25905;SDS011;13713;52.552;13.204;2023-05-10T06:45:47;72.35;;;38.88;;
25905;SDS011;13713;52.552;13.204;2023-05-10T06:48:13;78.45;;;40.78;;
25905;SDS011;13713;52.552;13.204;2023-05-10T06:50:39;71.25;;;35.30;;
25905;SDS011;13713;52.552;13.204;2023-05-10T06:53:04;64.10;;;35.10;;
25905;SDS011;13713;52.552;13.204;2023-05-10T06:55:30;56.03;;;32.20;;
25905;SDS011;13713;52.552;13.204;2023-05-10T06:57:56;50.08;;;30.55;;
25905;SDS011;13713;52.552;13.204;2023-05-10T07:00:21;69.90;;;32.28;;
25905;SDS011;13713;52.552;13.204;2023-05-10T07:02:47;92.30;;;37.25;;
25905;SDS011;13713;52.552;13.204;2023-05-10T07:05:13;110.38;;;41.25;;
25905;SDS011;13713;52.552;13.204;2023-05-10T07:07:39;143.77;;;48.67;;
25905;SDS011;13713;52.552;13.204;2023-05-10T07:10:05;136.75;;;46.83;;
25905;SDS011;13713;52.552;13.204;2023-05-10T07:12:32;161.93;;;51.20;;
25905;SDS011;13713;52.552;13.204;2023-05-10T07:14:57;147.90;;;54.00;;
25905;SDS011;13713;52.552;13.204;2023-05-10T07:17:23;178.88;;;54.25;;
25905;SDS011;13713;52.552;13.204;2023-05-10T07:19:49;148.50;;;47.05;;
25905;SDS011;13713;52.552;13.204;2023-05-10T07:22:15;170.60;;;55.22;;
25905;SDS011;13713;52.552;13.204;2023-05-10T07:24:44;192.13;;;59.22;;
25905;SDS011;13713;52.552;13.204;2023-05-10T07:27:10;164.52;;;56.55;;
25905;SDS011;13713;52.552;13.204;2023-05-10T07:29:36;229.98;;;81.63;;
25905;SDS011;13713;52.552;13.204;2023-05-10T07:32:02;208.27;;;66.32;;
25905;SDS011;13713;52.552;13.204;2023-05-10T07:34:28;184.10;;;58.70;;
25905;SDS011;13713;52.552;13.204;2023-05-10T07:36:55;176.02;;;59.22;;
25905;SDS011;13713;52.552;13.204;2023-05-10T07:39:24;170.15;;;56.20;;
25905;SDS011;13713;52.552;13.204;2023-05-10T07:41:49;174.70;;;57.00;;
25905;SDS011;13713;52.552;13.204;2023-05-10T07:44:15;217.85;;;67.13;;
25905;SDS011;13713;52.552;13.204;2023-05-10T07:46:43;204.88;;;61.10;;
25905;SDS011;13713;52.552;13.204;2023-05-10T07:49:09;215.77;;;64.72;;
25905;SDS011;13713;52.552;13.204;2023-05-10T07:51:35;215.32;;;62.15;;
25905;SDS011;13713;52.552;13.204;2023-05-10T07:54:00;195.93;;;60.13;;
25905;SDS011;13713;52.552;13.204;2023-05-10T07:56:28;204.43;;;60.75;;
25905;SDS011;13713;52.552;13.204;2023-05-10T07:58:56;180.20;;;57.03;;
25905;SDS011;13713;52.552;13.204;2023-05-10T08:01:26;190.10;;;56.33;;
25905;SDS011;13713;52.552;13.204;2023-05-10T08:03:54;203.70;;;61.53;;
25905;SDS011;13713;52.552;13.204;2023-05-10T08:06:20;176.98;;;57.65;;
25905;SDS011;13713;52.552;13.204;2023-05-10T08:08:47;219.85;;;63.42;;
25905;SDS011;13713;52.552;13.204;2023-05-10T08:11:17;196.95;;;59.85;;
25905;SDS011;13713;52.552;13.204;2023-05-10T08:13:43;186.00;;;57.15;;
25905;SDS011;13713;52.552;13.204;2023-05-10T08:16:12;185.98;;;58.20;;
25905;SDS011;13713;52.552;13.204;2023-05-10T08:18:38;178.90;;;55.70;;
25905;SDS011;13713;52.552;13.204;2023-05-10T08:21:05;190.23;;;57.60;;
25905;SDS011;13713;52.552;13.204;2023-05-10T08:23:31;176.50;;;58.92;;
25905;SDS011;13713;52.552;13.204;2023-05-10T08:25:56;202.80;;;69.25;;
25905;SDS011;13713;52.552;13.204;2023-05-10T08:28:22;207.85;;;67.72;;
25905;SDS011;13713;52.552;13.204;2023-05-10T08:30:49;212.60;;;62.85;;
25905;SDS011;13713;52.552;13.204;2023-05-10T08:33:17;229.27;;;68.75;;
25905;SDS011;13713;52.552;13.204;2023-05-10T08:35:43;212.15;;;63.47;;
25905;SDS011;13713;52.552;13.204;2023-05-10T08:38:08;208.35;;;66.57;;
25905;SDS011;13713;52.552;13.204;2023-05-10T08:40:34;220.93;;;69.60;;
25905;SDS011;13713;52.552;13.204;2023-05-10T08:43:09;213.52;;;68.88;;
25905;SDS011;13713;52.552;13.204;2023-05-10T08:45:39;227.48;;;68.97;;
25905;SDS011;13713;52.552;13.204;2023-05-10T08:48:07;204.27;;;62.20;;
25905;SDS011;13713;52.552;13.204;2023-05-10T08:50:35;219.65;;;67.80;;
25905;SDS011;13713;52.552;13.204;2023-05-10T08:53:03;239.68;;;74.43;;
25905;SDS011;13713;52.552;13.204;2023-05-10T08:55:31;210.25;;;68.65;;
25905;SDS011;13713;52.552;13.204;2023-05-10T08:57:58;269.15;;;79.60;;
25905;SDS011;13713;52.552;13.204;2023-05-10T09:00:25;215.00;;;68.82;;
25905;SDS011;13713;52.552;13.204;2023-05-10T09:02:51;218.18;;;65.90;;
25905;SDS011;13713;52.552;13.204;2023-05-10T09:05:18;244.65;;;75.13;;
25905;SDS011;13713;52.552;13.204;2023-05-10T09:07:44;240.75;;;75.82;;
25905;SDS011;13713;52.552;13.204;2023-05-10T09:10:11;243.32;;;73.00;;
25905;SDS011;13713;52.552;13.204;2023-05-10T09:12:38;176.43;;;54.03;;
25905;SDS011;13713;52.552;13.204;2023-05-10T09:15:04;178.50;;;54.25;;
25905;SDS011;13713;52.552;13.204;2023-05-10T09:17:32;201.18;;;63.38;;
25905;SDS011;13713;52.552;13.204;2023-05-10T09:19:59;214.20;;;67.82;;
25905;SDS011;13713;52.552;13.204;2023-05-10T09:22:25;231.38;;;77.20;;
25905;SDS011;13713;52.552;13.204;2023-05-10T09:25:12;213.02;;;68.57;;
25905;SDS011;13713;52.552;13.204;2023-05-10T09:27:40;191.32;;;61.28;;
25905;SDS011;13713;52.552;13.204;2023-05-10T09:30:09;202.40;;;63.25;;
25905;SDS011;13713;52.552;13.204;2023-05-10T09:32:45;166.90;;;52.38;;
25905;SDS011;13713;52.552;13.204;2023-05-10T09:35:16;135.57;;;43.55;;
25905;SDS011;13713;52.552;13.204;2023-05-10T09:37:44;138.25;;;48.60;;
25905;SDS011;13713;52.552;13.204;2023-05-10T09:40:13;129.23;;;55.70;;
25905;SDS011;13713;52.552;13.204;2023-05-10T09:42:42;117.03;;;46.45;;
25905;SDS011;13713;52.552;13.204;2023-05-10T09:45:15;103.95;;;42.50;;
25905;SDS011;13713;52.552;13.204;2023-05-10T09:47:41;85.60;;;32.65;;
25905;SDS011;13713;52.552;13.204;2023-05-10T09:50:06;120.68;;;35.65;;
25905;SDS011;13713;52.552;13.204;2023-05-10T09:52:48;58.08;;;24.75;;
25905;SDS011;13713;52.552;13.204;2023-05-10T09:55:16;125.97;;;33.65;;
25905;SDS011;13713;52.552;13.204;2023-05-10T09:57:44;74.90;;;29.23;;
25905;SDS011;13713;52.552;13.204;2023-05-10T10:00:11;55.88;;;22.30;;
25905;SDS011;13713;52.552;13.204;2023-05-10T10:02:45;44.83;;;19.08;;
25905;SDS011;13713;52.552;13.204;2023-05-10T10:05:13;66.82;;;24.48;;
25905;SDS011;13713;52.552;13.204;2023-05-10T10:07:39;108.43;;;33.10;;
25905;SDS011;13713;52.552;13.204;2023-05-10T10:10:05;100.15;;;33.03;;
25905;SDS011;13713;52.552;13.204;2023-05-10T10:12:36;115.45;;;38.15;;
25905;SDS011;13713;52.552;13.204;2023-05-10T10:15:02;107.47;;;33.00;;
25905;SDS011;13713;52.552;13.204;2023-05-10T10:17:29;80.68;;;27.35;;
25905;SDS011;13713;52.552;13.204;2023-05-10T10:19:57;70.50;;;22.45;;
25905;SDS011;13713;52.552;13.204;2023-05-10T10:22:23;67.72;;;22.30;;
25905;SDS011;13713;52.552;13.204;2023-05-10T10:24:49;67.47;;;22.10;;
25905;SDS011;13713;52.552;13.204;2023-05-10T10:27:28;71.13;;;22.77;;
25905;SDS011;13713;52.552;13.204;2023-05-10T10:33:11;118.55;;;35.58;;
25905;SDS011;13713;52.552;13.204;2023-05-10T10:35:39;103.05;;;48.75;;
25905;SDS011;13713;52.552;13.204;2023-05-10T10:38:05;109.57;;;36.85;;
25905;SDS011;13713;52.552;13.204;2023-05-10T10:40:33;102.55;;;36.90;;
25905;SDS011;13713;52.552;13.204;2023-05-10T10:46:04;91.15;;;29.17;;
25905;SDS011;13713;52.552;13.204;2023-05-10T10:48:37;100.95;;;32.35;;
25905;SDS011;13713;52.552;13.204;2023-05-10T10:51:03;170.35;;;49.13;;
25905;SDS011;13713;52.552;13.204;2023-05-10T10:53:28;125.80;;;38.75;;
25905;SDS011;13713;52.552;13.204;2023-05-10T10:58:49;238.55;;;78.57;;
25905;SDS011;13713;52.552;13.204;2023-05-10T11:01:18;240.95;;;84.28;;
25905;SDS011;13713;52.552;13.204;2023-05-10T11:06:28;232.83;;;71.27;;
25905;SDS011;13713;52.552;13.204;2023-05-10T11:08:56;242.35;;;71.72;;
25905;SDS011;13713;52.552;13.204;2023-05-10T11:11:22;276.42;;;79.43;;
25905;SDS011;13713;52.552;13.204;2023-05-10T11:13:48;242.65;;;71.13;;
25905;SDS011;13713;52.552;13.204;2023-05-10T11:16:15;180.02;;;57.08;;
25905;SDS011;13713;52.552;13.204;2023-05-10T11:21:18;255.23;;;73.75;;
25905;SDS011;13713;52.552;13.204;2023-05-10T11:26:13;271.42;;;81.65;;
25905;SDS011;13713;52.552;13.204;2023-05-10T11:28:43;266.35;;;81.28;;
25905;SDS011;13713;52.552;13.204;2023-05-10T11:31:16;244.32;;;78.82;;
25905;SDS011;13713;52.552;13.204;2023-05-10T11:33:43;241.98;;;73.10;;
25905;SDS011;13713;52.552;13.204;2023-05-10T11:36:20;188.73;;;64.50;;
25905;SDS011;13713;52.552;13.204;2023-05-10T11:38:51;281.10;;;94.18;;
25905;SDS011;13713;52.552;13.204;2023-05-10T11:41:18;239.52;;;87.55;;
25905;SDS011;13713;52.552;13.204;2023-05-10T11:43:47;286.83;;;89.88;;
25905;SDS011;13713;52.552;13.204;2023-05-10T11:46:14;243.55;;;80.95;;
25905;SDS011;13713;52.552;13.204;2023-05-10T11:48:42;251.80;;;78.07;;
25905;SDS011;13713;52.552;13.204;2023-05-10T11:51:08;290.65;;;92.88;;
25905;SDS011;13713;52.552;13.204;2023-05-10T11:53:34;304.35;;;89.65;;
25905;SDS011;13713;52.552;13.204;2023-05-10T11:56:03;289.90;;;91.57;;
25905;SDS011;13713;52.552;13.204;2023-05-10T11:58:34;343.23;;;115.88;;
25905;SDS011;13713;52.552;13.204;2023-05-10T12:01:00;283.10;;;89.63;;
25905;SDS011;13713;52.552;13.204;2023-05-10T12:03:27;282.88;;;84.43;;
25905;SDS011;13713;52.552;13.204;2023-05-10T12:05:54;276.80;;;83.57;;
25905;SDS011;13713;52.552;13.204;2023-05-10T12:08:24;246.50;;;81.93;;
25905;SDS011;13713;52.552;13.204;2023-05-10T12:10:51;123.40;;;44.95;;
25905;SDS011;13713;52.552;13.204;2023-05-10T12:13:17;292.50;;;89.00;;
25905;SDS011;13713;52.552;13.204;2023-05-10T12:15:45;262.90;;;77.57;;
25905;SDS011;13713;52.552;13.204;2023-05-10T12:18:12;254.55;;;77.00;;
25905;SDS011;13713;52.552;13.204;2023-05-10T12:20:39;253.00;;;78.35;;
25905;SDS011;13713;52.552;13.204;2023-05-10T12:23:07;277.58;;;81.60;;
25905;SDS011;13713;52.552;13.204;2023-05-10T12:25:34;256.48;;;77.00;;
25905;SDS011;13713;52.552;13.204;2023-05-10T12:28:05;239.85;;;74.53;;
25905;SDS011;13713;52.552;13.204;2023-05-10T12:30:32;236.23;;;71.60;;
25905;SDS011;13713;52.552;13.204;2023-05-10T12:33:00;257.73;;;78.60;;
25905;SDS011;13713;52.552;13.204;2023-05-10T12:35:46;271.52;;;86.25;;
25905;SDS011;13713;52.552;13.204;2023-05-10T12:38:26;303.63;;;95.32;;
25905;SDS011;13713;52.552;13.204;2023-05-10T12:40:55;220.55;;;69.47;;
25905;SDS011;13713;52.552;13.204;2023-05-10T12:43:22;280.15;;;86.50;;
25905;SDS011;13713;52.552;13.204;2023-05-10T12:45:48;258.55;;;85.55;;
25905;SDS011;13713;52.552;13.204;2023-05-10T12:48:14;222.98;;;68.57;;
25905;SDS011;13713;52.552;13.204;2023-05-10T12:50:40;174.05;;;53.20;;
25905;SDS011;13713;52.552;13.204;2023-05-10T12:53:06;148.02;;;48.80;;
25905;SDS011;13713;52.552;13.204;2023-05-10T12:55:32;169.23;;;51.47;;
25905;SDS011;13713;52.552;13.204;2023-05-10T12:57:57;143.93;;;47.40;;
25905;SDS011;13713;52.552;13.204;2023-05-10T13:00:23;120.35;;;41.75;;
25905;SDS011;13713;52.552;13.204;2023-05-10T13:02:49;115.60;;;42.95;;
25905;SDS011;13713;52.552;13.204;2023-05-10T13:05:14;108.00;;;39.45;;
25905;SDS011;13713;52.552;13.204;2023-05-10T13:07:40;122.55;;;42.88;;
25905;SDS011;13713;52.552;13.204;2023-05-10T13:10:06;112.43;;;39.05;;
25905;SDS011;13713;52.552;13.204;2023-05-10T13:12:32;105.82;;;36.53;;
25905;SDS011;13713;52.552;13.204;2023-05-10T13:14:58;137.85;;;40.88;;
25905;SDS011;13713;52.552;13.204;2023-05-10T13:17:24;91.57;;;35.60;;
25905;SDS011;13713;52.552;13.204;2023-05-10T13:19:50;112.32;;;40.25;;
25905;SDS011;13713;52.552;13.204;2023-05-10T13:22:16;96.93;;;38.40;;
25905;SDS011;13713;52.552;13.204;2023-05-10T13:24:42;79.13;;;35.20;;
25905;SDS011;13713;52.552;13.204;2023-05-10T13:27:07;82.15;;;31.40;;
25905;SDS011;13713;52.552;13.204;2023-05-10T13:29:33;84.20;;;30.45;;
25905;SDS011;13713;52.552;13.204;2023-05-10T13:31:59;86.55;;;26.00;;
25905;SDS011;13713;52.552;13.204;2023-05-10T13:34:25;77.70;;;25.95;;
25905;SDS011;13713;52.552;13.204;2023-05-10T13:36:50;73.63;;;31.77;;
25905;SDS011;13713;52.552;13.204;2023-05-10T13:39:16;56.65;;;26.40;;
25905;SDS011;13713;52.552;13.204;2023-05-10T13:41:42;68.10;;;31.73;;
25905;SDS011;13713;52.552;13.204;2023-05-10T13:44:07;68.00;;;32.15;;
25905;SDS011;13713;52.552;13.204;2023-05-10T13:46:33;65.18;;;33.75;;
25905;SDS011;13713;52.552;13.204;2023-05-10T13:48:59;64.00;;;26.92;;
25905;SDS011;13713;52.552;13.204;2023-05-10T13:51:24;67.32;;;31.67;;
25905;SDS011;13713;52.552;13.204;2023-05-10T13:53:50;61.50;;;28.08;;
25905;SDS011;13713;52.552;13.204;2023-05-10T13:56:16;53.00;;;25.67;;
25905;SDS011;13713;52.552;13.204;2023-05-10T13:58:41;53.83;;;24.33;;
25905;SDS011;13713;52.552;13.204;2023-05-10T14:01:07;53.33;;;21.98;;
25905;SDS011;13713;52.552;13.204;2023-05-10T14:03:32;50.13;;;22.23;;
25905;SDS011;13713;52.552;13.204;2023-05-10T14:05:58;51.33;;;20.65;;
25905;SDS011;13713;52.552;13.204;2023-05-10T14:08:24;42.22;;;19.98;;
25905;SDS011;13713;52.552;13.204;2023-05-10T14:10:52;40.53;;;19.70;;
25905;SDS011;13713;52.552;13.204;2023-05-10T14:13:17;48.40;;;21.25;;
25905;SDS011;13713;52.552;13.204;2023-05-10T14:15:43;36.60;;;18.98;;
25905;SDS011;13713;52.552;13.204;2023-05-10T14:18:09;47.38;;;19.58;;
25905;SDS011;13713;52.552;13.204;2023-05-10T14:20:34;34.80;;;18.90;;
25905;SDS011;13713;52.552;13.204;2023-05-10T14:23:00;46.13;;;19.75;;
25905;SDS011;13713;52.552;13.204;2023-05-10T14:25:26;36.33;;;17.35;;
25905;SDS011;13713;52.552;13.204;2023-05-10T14:27:51;26.65;;;16.15;;
25905;SDS011;13713;52.552;13.204;2023-05-10T14:30:19;34.08;;;16.17;;